»·PEaware :: N101UD TFFB-KRAP

N101UD :: TFFB-KRAP

FLIGHT INFORMATION

Flight Status: Arrived
Operator: Privately registered:
United States
More flights under this callsign
Pilot: Alan J. (5709)
Aircraft: BOMBARDIER BD-100 CHALLENGER 300
(CL30)
More flights by this aircraft type
Origin: TFFB Baillif
Guadeloupe
Destination: KRAP Rapid City Regl
United States
More flights between these airports :: More routes between these airports
Route: BIMBO A517 SKB UG633 GABAR G633 DDP A555 ZQA BR65V ZFP BR62V TRV J45 AMG J46 VXV J99 IIU J8 STL J45 FSD J82 VIVID
File this flight plan on PilotEdge
Remarks:
Altitude:
(Current/Filed)
43,000ft
Speed:
(Current/Filed)
470kts
Departed: 24-May-17 06:46 PM
Arrived: 24-May-17 07:34 PM
Distance/Time
Traveled:
2682nm/0:48
Distance/Time
To Go:
Arrived

Flight Plot

Page will automatically refresh every two minutes.

Flight plan parsing failed; only flown route is shown


Map Options




Map Legend


Flown Route
Filed Route
Departure Airport
Arrival Airport
Navaid (VOR, NDB)
Fix

Horizontal Profiles

Position Reports

Time Latitude Longitude Heading Altitude Ground
Speed
24-May-17 18:47 40.314002 -92.767662 327 42774ft 406kts
24-May-17 18:48 40.398706 -92.862674 328 42779ft 403kts
24-May-17 18:49 40.460128 -92.931781 328 42782ft 402kts
24-May-17 18:50 43.329049 -96.368487 321 42763ft 395kts
24-May-17 18:51 43.407549 -96.469047 321 42752ft 384kts
24-May-17 18:52 43.484263 -96.567649 321 42748ft 374kts
24-May-17 18:53 43.558301 -96.663135 321 42750ft 366kts
24-May-17 18:54 43.629687 -96.760227 312 42748ft 368kts
24-May-17 18:55 43.657831 -96.899229 287 42748ft 392kts
24-May-17 18:56 43.670229 -97.047136 286 42746ft 389kts
24-May-17 18:57 43.865061 -100.048383 281 42557ft 389kts
24-May-17 18:58 43.875605 -100.195090 281 42553ft 385kts
24-May-17 18:59 43.886122 -100.342301 281 41639ft 401kts
24-May-17 19:00 43.897160 -100.500334 281 39008ft 416kts
24-May-17 19:01 43.907649 -100.654503 280 36359ft 397kts
24-May-17 19:02 43.880185 -100.801433 259 33745ft 399kts
24-May-17 19:03 43.871949 -100.944482 274 31171ft 376kts
24-May-17 19:04 43.877345 -101.071823 274 28953ft 398kts
24-May-17 19:05 43.889414 -101.224482 275 26379ft 406kts
24-May-17 19:06 43.901935 -101.378705 275 23782ft 404kts
24-May-17 19:07 43.914048 -101.522659 275 23459ft 353kts
24-May-17 19:08 43.925218 -101.649623 275 23460ft 316kts
24-May-17 19:09 43.935724 -101.766821 275 22475ft 322kts
24-May-17 19:10 43.947172 -101.895333 275 19928ft 351kts
24-May-17 19:11 43.959097 -102.028321 275 17940ft 345kts
24-May-17 19:12 43.970878 -102.157153 275 16143ft 332kts
24-May-17 19:13 43.982376 -102.280712 275 14345ft 318kts
24-May-17 19:14 43.984967 -102.399176 267 12544ft 303kts
24-May-17 19:15 43.983363 -102.512668 267 10741ft 289kts
24-May-17 19:16 43.982054 -102.620793 266 8943ft 276kts
24-May-17 19:17 43.980387 -102.723517 264 7164ft 261kts
24-May-17 19:18 43.978800 -102.818762 264 7013ft 252kts
24-May-17 19:19 43.977269 -102.918560 264 7012ft 263kts
24-May-17 19:20 44.009758 -103.009360 302 7011ft 278kts
24-May-17 19:21 44.070132 -103.075880 327 7005ft 288kts
24-May-17 19:22 44.140491 -103.126258 328 6991ft 289kts
24-May-17 19:23 44.212114 -103.175909 328 6988ft 288kts
24-May-17 19:24 44.284950 -103.220230 356 6977ft 298kts
24-May-17 19:25 44.365637 -103.190916 4 6979ft 301kts
24-May-17 19:26 44.399516 -103.256734 230 6982ft 231kts
24-May-17 19:27 44.348636 -103.254850 156 6981ft 201kts
24-May-17 19:28 44.300432 -103.217564 162 6935ft 198kts
24-May-17 19:29 44.253262 -103.191145 167 6231ft 167kts
24-May-17 19:30 44.212489 -103.176191 174 5264ft 137kts
24-May-17 19:31 44.176787 -103.158410 156 4771ft 139kts
24-May-17 19:32 44.145482 -103.130070 155 4761ft 129kts
24-May-17 19:33 44.113855 -103.107124 156 4666ft 128kts
24-May-17 19:34 44.083240 -103.087415 156 4057ft 119kts
24-May-17 19:35 44.058874 -103.069689 154 3382ft 122kts
24-May-17 19:36 44.037219 -103.053724 151 3142ft 29kts
24-May-17 19:37 44.035444 -103.054212 300 3138ft 4kts
24-May-17 19:38 44.037378 -103.055737 331 3151ft 11kts
24-May-17 19:39 44.037683 -103.058120 242 3156ft 5kts
24-May-17 19:40 44.037259 -103.058622 192 3155ft 0kts

Navigation Log

Ident Type
Flight plan parsing failed, navigation log unavailable